Time;durP1;ratioP1;P1;durP2;ratioP2;P2;SDS_P1;SDS_P2;PMS_P1;PMS_P2;Temp;Humidity;BMP_temperature;BMP_pressure;BME280_temperature;BME280_humidity;BME280_pressure;Samples;Min_cycle;Max_cycle;Signal;HPM_P1;HPM_P2
2021/03/20 00:00:33;;;;;;;3.40;1.33;;;;;;;3.12;56.41;101112.41;4992837;28;20508;-89
2021/03/20 00:02:59;;;;;;;2.95;1.20;;;;;;;3.10;57.55;101106.34;4992721;28;20050;-89
2021/03/20 00:05:25;;;;;;;3.53;1.50;;;;;;;3.08;57.18;101110.69;4992778;28;20046;-89
2021/03/20 00:07:53;;;;;;;5.50;2.13;;;;;;;3.03;57.56;101113.28;4992868;28;20050;-88
2021/03/20 00:10:22;;;;;;;2.08;1.35;;;;;;;2.99;57.00;101107.25;4992758;28;20061;-88
2021/03/20 00:12:49;;;;;;;7.70;1.50;;;;;;;2.96;57.52;101109.84;4993695;28;20516;-88
2021/03/20 00:15:17;;;;;;;2.15;1.30;;;;;;;2.92;57.27;101110.72;4992324;28;20050;-89
2021/03/20 00:17:43;;;;;;;3.40;1.60;;;;;;;2.89;57.13;101117.69;4993971;28;20054;-89
2021/03/20 00:20:12;;;;;;;5.78;1.58;;;;;;;2.84;57.20;101117.72;4994222;28;20055;-89
2021/03/20 00:22:38;;;;;;;4.18;1.50;;;;;;;2.83;57.57;101126.34;4992346;28;20515;-89
2021/03/20 00:25:06;;;;;;;3.47;1.50;;;;;;;2.80;57.36;101126.38;4992607;28;20078;-89
2021/03/20 00:27:33;;;;;;;2.53;1.42;;;;;;;2.78;58.02;101129.00;4993676;28;20046;-89
2021/03/20 00:30:00;;;;;;;4.85;1.50;;;;;;;2.77;57.80;101123.78;4992430;28;20050;-89
2021/03/20 00:32:26;;;;;;;2.75;1.35;;;;;;;2.77;57.54;101123.78;4992592;28;20050;-89
2021/03/20 00:34:53;;;;;;;3.83;1.50;;;;;;;2.74;58.10;101133.31;4993412;28;20417;-89
2021/03/20 00:37:19;;;;;;;2.08;1.20;;;;;;;2.76;58.08;101140.25;4993822;28;20050;-89
2021/03/20 00:39:45;;;;;;;3.70;1.67;;;;;;;2.74;57.96;101135.91;4992580;28;20051;-89
2021/03/20 00:42:11;;;;;;;2.35;1.40;;;;;;;2.74;58.01;101135.91;4993506;28;20493;-89
2021/03/20 00:44:38;;;;;;;4.32;1.75;;;;;;;2.73;57.80;101143.75;4994289;28;20050;-89
2021/03/20 00:47:05;;;;;;;3.22;1.55;;;;;;;2.71;58.06;101141.13;4996073;28;20061;-89
2021/03/20 00:49:31;;;;;;;3.25;1.90;;;;;;;2.71;57.96;101135.94;4995979;28;20088;-89
2021/03/20 00:51:58;;;;;;;4.13;1.88;;;;;;;2.70;58.03;101133.34;4997162;28;20053;-89
2021/03/20 00:54:24;;;;;;;5.00;1.98;;;;;;;2.69;58.08;101144.63;4997171;28;20409;-89
2021/03/20 00:56:50;;;;;;;4.30;1.67;;;;;;;2.68;58.06;101146.34;4996802;28;20046;-89
2021/03/20 00:59:16;;;;;;;7.13;2.00;;;;;;;2.68;58.59;101135.94;4995632;28;20046;-89
2021/03/20 01:01:42;;;;;;;3.15;1.90;;;;;;;2.69;58.53;101131.59;4996098;28;20061;-89
2021/03/20 01:04:09;;;;;;;5.05;2.10;;;;;;;2.69;58.35;101137.66;4995690;28;20050;-89
2021/03/20 01:06:35;;;;;;;2.45;1.58;;;;;;;2.70;58.67;101131.56;4995534;28;20054;-89
2021/03/20 01:09:06;;;;;;;3.20;1.77;;;;;;;2.72;59.04;101131.59;4976618;28;20470;-89
2021/03/20 01:11:33;;;;;;;3.95;2.10;;;;;;;2.72;58.86;101122.06;4977314;28;20505;-89
2021/03/20 01:14:00;;;;;;;4.43;1.90;;;;;;;2.73;58.86;101128.13;4977163;28;20047;-89
2021/03/20 01:16:28;;;;;;;3.60;2.03;;;;;;;2.73;58.63;101128.97;4977563;28;20065;-89
2021/03/20 01:18:55;;;;;;;5.07;2.08;;;;;;;2.73;58.72;101128.13;4995340;28;20046;-89
2021/03/20 01:21:23;;;;;;;7.07;2.38;;;;;;;2.72;58.25;101126.38;4996568;28;20061;-89
2021/03/20 01:23:49;;;;;;;6.70;1.80;;;;;;;2.71;58.15;101117.72;4995406;28;20062;-89
2021/03/20 01:26:15;;;;;;;3.33;1.63;;;;;;;2.70;58.52;101118.59;4995388;28;20051;-89
2021/03/20 01:28:43;;;;;;;4.75;1.67;;;;;;;2.69;58.29;101126.41;4995417;28;20053;-89
2021/03/20 01:31:10;;;;;;;3.70;1.58;;;;;;;2.68;58.25;101129.84;4995611;28;20050;-89
2021/03/20 01:33:36;;;;;;;5.00;2.03;;;;;;;2.66;58.24;101135.09;4995011;28;20050;-89
2021/03/20 01:36:03;;;;;;;3.92;1.52;;;;;;;2.63;58.19;101132.47;4995018;28;20103;-89
2021/03/20 01:38:29;;;;;;;4.65;1.48;;;;;;;2.59;57.98;101131.59;4996313;28;20054;-89
2021/03/20 01:40:59;;;;;;;4.10;1.60;;;;;;;2.56;57.87;101142.03;4995095;28;20046;-89
2021/03/20 01:43:26;;;;;;;3.83;1.85;;;;;;;2.54;57.70;101135.09;4995387;28;20408;-89
2021/03/20 01:45:53;;;;;;;3.78;1.90;;;;;;;2.52;58.40;101129.03;4995170;28;20054;-89
2021/03/20 01:48:36;;;;;;;5.55;1.80;;;;;;;2.48;56.80;101135.97;4995922;28;20050;-89
2021/03/20 01:51:05;;;;;;;2.88;1.60;;;;;;;2.50;58.20;101126.41;4996356;28;20050;-89
2021/03/20 01:53:38;;;;;;;3.08;1.45;;;;;;;2.46;57.86;101117.78;4996109;28;20051;-89
2021/03/20 01:56:09;;;;;;;;;;;;;;;2.48;57.78;101123.81;4993985;28;20061;-89
2021/03/20 01:58:39;;;;;;;2.35;1.50;;;;;;;2.51;58.00;101119.50;4994867;28;19922;-89
2021/03/20 02:01:09;;;;;;;4.22;2.13;;;;;;;2.50;57.85;101122.97;4995855;28;20500;-89
2021/03/20 02:03:36;;;;;;;3.42;1.63;;;;;;;2.51;58.47;101132.50;4996457;28;20409;-88
2021/03/20 02:06:04;;;;;;;2.47;1.45;;;;;;;2.49;58.24;101124.69;4994472;28;20054;-89
2021/03/20 02:08:30;;;;;;;4.38;1.77;;;;;;;2.48;58.59;101121.22;4994769;28;20050;-89
2021/03/20 02:11:04;;;;;;;3.80;1.85;;;;;;;2.47;58.31;101129.88;4996001;28;20050;-89
2021/03/20 02:13:40;;;;;;;4.05;1.75;;;;;;;2.46;57.95;101127.28;4994820;28;20061;-89
2021/03/20 02:16:30;;;;;;;5.22;1.92;;;;;;;2.45;58.08;101125.56;4994627;28;20057;-89
2021/03/20 02:19:28;;;;;;;3.95;1.85;;;;;;;2.43;58.17;101115.16;4995895;28;20050;-89
2021/03/20 02:22:03;;;;;;;3.50;1.70;;;;;;;2.41;57.66;101106.53;4986690;28;20061;-89
2021/03/20 02:25:27;;;;;;;3.58;1.98;;;;;;;2.37;57.45;101110.00;4995736;28;20050;-89
2021/03/20 02:28:03;;;;;;;5.75;1.70;;;;;;;2.38;58.53;101101.31;4938599;29;20498;-89
2021/03/20 02:30:51;;;;;;;3.70;1.80;;;;;;;2.34;57.76;101107.38;4969798;28;20054;-89
2021/03/20 02:33:26;;;;;;;4.97;1.98;;;;;;;2.31;58.00;101108.25;4974914;28;20043;-89
2021/03/20 02:36:06;;;;;;;5.18;1.90;;;;;;;2.31;58.11;101110.84;4982877;28;20516;-89
2021/03/20 02:38:51;;;;;;;2.80;1.92;;;;;;;2.28;58.23;101113.44;4994382;28;20057;-89
2021/03/20 02:41:29;;;;;;;4.63;1.95;;;;;;;2.30;58.79;101108.25;4995325;28;20051;-89
2021/03/20 02:44:08;;;;;;;5.07;2.53;;;;;;;2.27;57.99;101113.44;4995297;28;20046;-89
2021/03/20 02:46:38;;;;;;;7.55;2.33;;;;;;;2.26;58.92;101104.81;4993608;28;20055;-89
2021/03/20 02:49:34;;;;;;;6.82;2.67;;;;;;;2.21;58.15;101111.75;4993752;28;20137;-89
2021/03/20 02:52:07;;;;;;;2.92;1.65;;;;;;;2.20;58.56;101109.97;4994146;28;20137;-89
2021/03/20 02:55:00;;;;;;;4.05;1.75;;;;;;;2.15;58.29;101112.59;4993917;28;20065;-89
2021/03/20 02:57:35;;;;;;;4.95;2.10;;;;;;;2.14;58.16;101113.47;4994541;28;20108;-89
2021/03/20 03:00:31;;;;;;;3.55;1.90;;;;;;;2.10;57.53;101122.13;4994825;28;20508;-89
2021/03/20 03:02:58;;;;;;;4.53;2.35;;;;;;;2.12;58.97;101127.28;4991251;28;20469;-89
2021/03/20 03:05:40;;;;;;;6.15;2.85;;;;;;;2.07;58.35;101122.13;4993748;28;20448;-89
2021/03/20 03:08:12;;;;;;;5.55;2.45;;;;;;;2.06;59.02;101126.44;4993358;28;20069;-89
2021/03/20 03:11:13;;;;;;;5.70;2.13;;;;;;;2.04;58.05;101119.50;4993528;28;20080;-88
2021/03/20 03:13:44;;;;;;;3.80;2.10;;;;;;;2.05;58.97;101126.44;4993247;28;20422;-87
2021/03/20 03:16:21;;;;;;;5.22;2.00;;;;;;;2.01;58.43;101122.97;4993851;28;20046;-88
2021/03/20 03:19:00;;;;;;;3.42;1.98;;;;;;;2.00;58.50;101126.44;4993282;28;20514;-88
2021/03/20 03:21:30;;;;;;;4.47;1.60;;;;;;;2.01;59.02;101122.09;4994064;28;20056;-88
2021/03/20 03:23:57;;;;;;;3.78;1.90;;;;;;;2.02;59.12;101129.03;4994111;28;20050;-87
2021/03/20 03:26:31;;;;;;;2.60;1.60;;;;;;;1.99;59.01;101126.44;4993370;28;20054;-88
2021/03/20 03:29:05;;;;;;;3.78;1.90;;;;;;;2.00;59.15;101130.75;4993022;28;20046;-88
2021/03/20 03:31:42;;;;;;;3.50;1.67;;;;;;;1.99;58.29;101116.06;4993283;28;20069;-88
2021/03/20 03:34:14;;;;;;;4.55;1.70;;;;;;;1.97;58.54;101118.63;4992968;28;20068;-88
2021/03/20 03:36:57;;;;;;;3.42;1.52;;;;;;;1.94;58.15;101114.31;5043794;23;20046;-84
2021/03/20 03:39:41;;;;;;;2.40;1.58;;;;;;;1.93;58.30;101110.00;5011706;28;20114;-85
2021/03/20 03:42:13;;;;;;;6.00;1.77;;;;;;;1.94;58.92;101108.25;5010823;28;20130;-84
2021/03/20 03:44:45;;;;;;;5.35;1.77;;;;;;;1.92;59.39;101103.06;5011820;28;20050;-86
2021/03/20 03:47:14;;;;;;;5.05;1.83;;;;;;;1.90;59.34;101104.78;5012816;28;20050;-84
2021/03/20 03:49:41;;;;;;;2.28;1.63;;;;;;;1.90;59.31;101109.97;5012656;28;20054;-84
2021/03/20 03:52:10;;;;;;;5.05;1.90;;;;;;;1.89;59.48;101113.44;5012477;28;20058;-86
2021/03/20 03:54:37;;;;;;;3.22;1.70;;;;;;;1.87;59.38;101106.53;5012441;28;20061;-87
2021/03/20 03:57:31;;;;;;;4.78;1.80;;;;;;;1.79;58.16;101107.38;5012447;28;20062;-85
2021/03/20 04:00:09;;;;;;;4.70;1.60;;;;;;;1.74;58.41;101109.09;5012789;28;20046;-87
2021/03/20 04:02:51;;;;;;;4.30;1.88;;;;;;;1.67;58.35;101095.25;5011993;28;20056;-85
2021/03/20 04:05:32;;;;;;;4.93;1.80;;;;;;;1.63;58.61;101097.81;5011325;28;20041;-84
2021/03/20 04:08:14;;;;;;;4.40;2.20;;;;;;;1.59;59.16;101106.47;5011502;28;20050;-85
2021/03/20 04:10:56;;;;;;;4.35;1.58;;;;;;;1.52;58.88;101106.47;5012305;28;20066;-86
2021/03/20 04:13:36;;;;;;;3.38;1.70;;;;;;;1.51;59.72;101107.34;5010345;28;20060;-84
2021/03/20 04:16:37;;;;;;;4.65;1.70;;;;;;;1.47;58.72;101105.59;5012273;28;20058;-85
2021/03/20 04:19:09;;;;;;;4.43;1.67;;;;;;;1.47;59.55;101108.19;5013680;28;20077;-85
2021/03/20 04:21:51;;;;;;;2.00;1.48;;;;;;;1.47;58.86;101110.78;5015299;28;20046;-85
2021/03/20 04:24:31;;;;;;;5.03;1.75;;;;;;;1.50;59.65;101104.72;5015988;28;20060;-85
2021/03/20 04:27:04;;;;;;;4.95;1.77;;;;;;;1.52;60.09;101100.41;5015594;28;20042;-84
2021/03/20 04:29:41;;;;;;;3.38;1.65;;;;;;;1.53;59.47;101096.97;5015714;28;20054;-84
2021/03/20 04:32:29;;;;;;;3.00;1.63;;;;;;;1.55;59.30;101103.88;5016488;28;20060;-84
2021/03/20 04:35:08;;;;;;;3.15;1.50;;;;;;;1.56;59.49;101100.41;5014877;28;20050;-84
2021/03/20 04:37:42;;;;;;;3.08;1.58;;;;;;;1.58;59.76;101097.84;5014913;28;20050;-84
2021/03/20 04:40:32;;;;;;;2.00;1.60;;;;;;;1.59;59.81;101084.00;5015486;28;20054;-85
2021/03/20 04:43:00;;;;;;;4.15;1.73;;;;;;;1.60;60.08;101077.91;5014833;28;20046;-85
2021/03/20 04:45:59;;;;;;;3.67;1.65;;;;;;;1.55;58.75;101090.03;5015143;28;20042;-85
2021/03/20 04:48:31;;;;;;;4.65;1.80;;;;;;;1.56;59.94;101094.34;5014093;28;20109;-84
2021/03/20 04:51:07;;;;;;;5.03;2.10;;;;;;;1.53;58.95;101095.22;5015280;28;20045;-85
2021/03/20 04:53:33;;;;;;;4.20;2.00;;;;;;;1.52;60.19;101095.22;5014653;28;20563;-85
2021/03/20 04:56:05;;;;;;;4.45;2.25;;;;;;;1.47;59.67;101094.34;5015848;28;20050;-85
2021/03/20 04:58:50;;;;;;;3.97;2.03;;;;;;;1.43;59.59;101103.84;5015543;28;20057;-84
2021/03/20 05:01:40;;;;;;;5.03;1.98;;;;;;;1.41;60.46;101105.56;5015197;28;20400;-84
2021/03/20 05:04:37;;;;;;;3.63;2.00;;;;;;;1.39;59.71;101112.47;4991747;28;20057;-84
2021/03/20 05:07:04;;;;;;;6.40;2.10;;;;;;;1.40;60.35;101117.69;4993139;28;20059;-84
2021/03/20 05:09:31;;;;;;;5.57;2.40;;;;;;;1.38;60.30;101116.78;4994670;28;20058;-85
2021/03/20 05:12:27;;;;;;;3.70;1.90;;;;;;;1.34;59.12;101120.25;5001415;28;20046;-85
2021/03/20 05:15:04;;;;;;;6.38;1.90;;;;;;;1.35;59.48;101111.59;5012406;28;20066;-84
2021/03/20 05:17:32;;;;;;;5.88;2.08;;;;;;;1.35;60.20;101100.38;5013309;28;20058;-84
2021/03/20 05:19:59;;;;;;;4.47;2.13;;;;;;;1.34;60.84;101107.28;5013088;28;20050;-85
2021/03/20 05:22:31;;;;;;;3.38;1.73;;;;;;;1.32;59.98;101101.22;5013246;28;20052;-84
2021/03/20 05:24:59;;;;;;;6.27;2.20;;;;;;;1.36;60.89;101108.16;5013534;28;20060;-85
2021/03/20 05:27:30;;;;;;;4.32;1.95;;;;;;;1.40;60.80;101107.31;5012606;28;20046;-84
2021/03/20 05:29:56;;;;;;;4.65;2.40;;;;;;;1.48;61.10;101112.50;5013264;28;20050;-85
2021/03/20 05:32:33;;;;;;;4.60;1.85;;;;;;;1.53;60.87;101112.53;5012855;28;20061;-85
2021/03/20 05:35:01;;;;;;;5.75;1.73;;;;;;;1.61;61.70;101107.34;5011588;28;20054;-86
2021/03/20 05:37:34;;;;;;;5.35;2.20;;;;;;;1.66;61.13;101098.72;5002435;28;20058;-86
2021/03/20 05:40:00;;;;;;;5.70;2.17;;;;;;;1.77;61.71;101113.44;5003712;28;20046;-85
2021/03/20 05:42:58;;;;;;;6.28;1.90;;;;;;;1.82;59.93;101111.69;5002934;28;20042;-85
2021/03/20 05:45:40;;;;;;;4.20;2.15;;;;;;;1.92;60.45;101112.59;5001709;28;20054;-86
2021/03/20 05:48:14;;;;;;;7.43;2.38;;;;;;;2.01;60.96;101109.09;5001091;28;20050;-86
2021/03/20 05:51:06;;;;;;;3.50;1.83;;;;;;;2.05;60.34;101113.44;5005136;28;20050;-84
2021/03/20 05:53:38;;;;;;;6.70;1.83;;;;;;;2.14;60.86;101117.78;5007818;28;20054;-84
2021/03/20 05:56:30;;;;;;;4.13;2.10;;;;;;;2.17;60.32;101121.25;5009730;28;20046;-84
2021/03/20 05:59:44;;;;;;;3.97;1.98;;;;;;;2.25;59.91;101123.88;5007320;28;20054;-84
2021/03/20 06:02:40;;;;;;;4.60;1.67;;;;;;;2.33;60.91;101114.31;5009523;28;20049;-87
2021/03/20 06:05:29;;;;;;;3.97;2.10;;;;;;;2.36;59.60;101129.06;5008811;28;20054;-85
2021/03/20 06:08:07;;;;;;;3.72;1.65;;;;;;;2.43;60.83;101127.31;5010166;28;20057;-84
2021/03/20 06:10:54;;;;;;;3.85;2.17;;;;;;;2.44;59.92;101129.03;5011516;28;20074;-85
2021/03/20 06:13:36;;;;;;;3.88;1.88;;;;;;;2.50;60.85;101130.78;5011633;28;20050;-84
2021/03/20 06:16:33;;;;;;;5.18;1.83;;;;;;;2.48;59.86;101118.63;5010593;28;20046;-85
2021/03/20 06:19:29;;;;;;;6.30;2.17;;;;;;;2.51;60.28;101130.78;5010819;28;20105;-84
2021/03/20 06:22:11;;;;;;;5.03;2.10;;;;;;;2.54;59.92;101133.34;5010835;28;20057;-84
2021/03/20 06:25:08;;;;;;;5.05;1.95;;;;;;;2.54;60.06;101137.69;5011165;28;20053;-85
2021/03/20 06:27:41;;;;;;;3.50;1.83;;;;;;;2.56;60.18;101138.56;5010967;28;20046;-84
2021/03/20 06:30:26;;;;;;;3.95;2.13;;;;;;;2.56;60.39;101146.34;5010695;28;20114;-86
2021/03/20 06:32:57;;;;;;;2.42;1.70;;;;;;;2.60;61.27;101142.88;5010990;28;20058;-84
2021/03/20 06:35:57;;;;;;;6.50;2.08;;;;;;;2.62;59.68;101142.88;5009400;28;20058;-84
2021/03/20 06:38:46;;;;;;;7.07;2.28;;;;;;;2.67;60.23;101135.94;5006052;28;20729;-84
2021/03/20 06:41:30;;;;;;;3.08;2.15;;;;;;;2.71;60.51;101135.94;5008254;28;20046;-84
2021/03/20 06:44:12;;;;;;;6.28;2.53;;;;;;;2.74;59.66;101135.91;5008871;28;20054;-84
2021/03/20 06:46:39;;;;;;;4.00;2.08;;;;;;;2.79;60.57;101138.50;5007783;28;20450;-86
2021/03/20 06:49:22;;;;;;;9.05;2.85;;;;;;;2.77;59.33;101134.19;5006875;28;20073;-85
2021/03/20 06:51:49;;;;;;;6.13;2.42;;;;;;;2.82;60.97;101138.50;5011654;28;20050;-84
2021/03/20 06:54:18;;;;;;;7.93;2.63;;;;;;;2.84;60.65;101130.72;5009847;28;20050;-84
2021/03/20 06:56:46;;;;;;;5.38;2.58;;;;;;;2.89;60.53;101143.69;5011290;28;20061;-84
2021/03/20 06:59:13;;;;;;;5.30;2.45;;;;;;;2.92;60.92;101141.94;5010599;28;20054;-84
2021/03/20 07:01:51;;;;;;;6.13;2.40;;;;;;;2.92;60.06;101147.13;5010732;28;20054;-84
2021/03/20 07:04:51;;;;;;;6.63;2.50;;;;;;;2.97;59.73;101154.94;5008982;28;20054;-85
2021/03/20 07:07:25;;;;;;;5.63;2.60;;;;;;;3.03;60.45;101148.84;5010500;28;20054;-84
2021/03/20 07:09:52;;;;;;;;;;;;;;;3.09;59.89;101154.03;5010879;28;20056;-84
2021/03/20 07:12:21;;;;;;;4.60;2.50;;;;;;;3.17;60.87;101157.47;5009248;28;20299;-84
2021/03/20 07:14:53;;;;;;;4.80;2.28;;;;;;;3.18;60.31;101154.00;5008964;28;20436;-84
2021/03/20 07:17:25;;;;;;;7.45;2.83;;;;;;;3.18;59.53;101167.00;5009149;28;20050;-84
2021/03/20 07:19:56;;;;;;;5.47;2.25;;;;;;;3.16;59.45;101162.69;5008609;28;20073;-84
2021/03/20 07:22:47;;;;;;;6.20;2.47;;;;;;;3.11;58.76;101166.16;5008007;28;20053;-83
2021/03/20 07:25:29;;;;;;;7.20;2.08;;;;;;;3.12;58.93;101170.50;4988282;28;20058;-85
2021/03/20 07:28:12;;;;;;;5.40;1.70;;;;;;;3.12;58.29;101170.50;4987007;28;20050;-84
2021/03/20 07:30:41;;;;;;;6.03;2.15;;;;;;;3.17;59.85;101174.84;4985730;28;20058;-85
2021/03/20 07:33:25;;;;;;;3.83;1.92;;;;;;;3.10;57.29;101177.44;4990575;28;20393;-84
2021/03/20 07:35:53;;;;;;;3.65;1.92;;;;;;;3.15;59.53;101185.25;5003727;28;20468;-84
2021/03/20 07:38:26;;;;;;;3.95;1.92;;;;;;;3.13;58.73;101184.38;5000568;28;20046;-85
2021/03/20 07:41:08;;;;;;;4.07;1.77;;;;;;;3.11;56.84;101183.53;4996265;28;20050;-85
2021/03/20 07:43:35;;;;;;;3.10;1.90;;;;;;;3.17;59.30;101185.25;4996361;28;20050;-85
2021/03/20 07:46:12;;;;;;;7.28;2.30;;;;;;;3.16;57.41;101193.91;4996101;28;20080;-85
2021/03/20 07:48:42;;;;;;;4.38;2.47;;;;;;;3.19;59.03;101184.38;4995964;28;20053;-85
2021/03/20 07:51:20;;;;;;;6.03;2.58;;;;;;;3.20;55.49;101185.22;4995916;28;20046;-85
2021/03/20 07:53:49;;;;;;;4.18;2.17;;;;;;;3.23;57.53;101180.00;4991757;28;20054;-86
2021/03/20 07:56:39;;;;;;;11.55;2.63;;;;;;;3.22;56.35;101179.13;4995794;28;20064;-85
2021/03/20 07:59:30;;;;;;;7.78;2.08;;;;;;;3.25;56.60;101186.94;4996113;28;20046;-85
2021/03/20 08:02:01;;;;;;;3.53;2.00;;;;;;;3.31;58.59;101195.59;4997372;28;20064;-85
2021/03/20 08:04:59;;;;;;;5.70;2.40;;;;;;;3.33;55.88;101201.66;4995339;28;20061;-85
2021/03/20 08:07:38;;;;;;;5.85;2.17;;;;;;;3.39;57.41;101191.22;4998754;28;20066;-85
2021/03/20 08:10:07;;;;;;;5.75;2.20;;;;;;;3.46;58.26;101198.16;4996396;28;20062;-85
2021/03/20 08:12:51;;;;;;;5.35;2.13;;;;;;;3.47;56.30;101202.47;4997641;28;20054;-85
2021/03/20 08:15:24;;;;;;;5.78;1.92;;;;;;;3.57;57.30;101210.25;4996476;28;20058;-86
2021/03/20 08:17:50;;;;;;;7.15;2.17;;;;;;;3.64;58.67;101211.97;4996079;28;20110;-85
2021/03/20 08:20:17;;;;;;;4.20;1.90;;;;;;;3.67;58.43;101201.53;4997348;28;20053;-85
2021/03/20 08:23:36;;;;;;;4.88;2.08;;;;;;;3.70;55.61;101209.31;4998007;28;20057;-85
2021/03/20 08:26:27;;;;;;;4.00;2.13;;;;;;;3.79;56.26;101203.22;4996511;28;20046;-88
2021/03/20 08:29:36;;;;;;;6.00;2.20;;;;;;;3.86;55.86;101198.81;4996562;28;20062;-85
2021/03/20 08:32:05;;;;;;;4.05;2.05;;;;;;;3.98;57.41;101193.53;4997432;28;20042;-85
2021/03/20 08:34:47;;;;;;;3.22;1.90;;;;;;;4.04;55.96;101190.88;4995649;28;20078;-85
2021/03/20 08:37:30;;;;;;;2.97;1.95;;;;;;;4.16;57.90;101189.09;4997624;28;20501;-85
2021/03/20 08:40:34;;;;;;;6.18;2.03;;;;;;;4.25;56.03;101186.41;4997004;28;20054;-85
2021/03/20 08:43:06;;;;;;;6.35;2.00;;;;;;;4.40;57.45;101185.41;4998155;28;20046;-85
2021/03/20 08:45:53;;;;;;;4.15;2.15;;;;;;;4.48;55.40;101185.34;4999107;28;20501;-85
2021/03/20 08:48:50;;;;;;;5.47;2.30;;;;;;;4.57;55.46;101180.06;4998722;28;20053;-85
2021/03/20 08:51:36;;;;;;;7.30;2.65;;;;;;;4.65;55.03;101185.22;4997457;28;20054;-84
2021/03/20 08:54:30;;;;;;;5.90;2.22;;;;;;;4.72;56.16;101178.19;4998823;28;20440;-85
2021/03/20 08:57:06;;;;;;;5.10;2.35;;;;;;;4.83;57.82;101184.16;4998671;28;20046;-85
2021/03/20 08:59:39;;;;;;;3.28;2.00;;;;;;;4.92;57.20;101187.56;4998841;28;20051;-85
2021/03/20 09:02:35;;;;;;;3.28;1.70;;;;;;;4.99;55.92;101181.41;4999515;28;20061;-85
2021/03/20 09:05:20;;;;;;;6.90;3.45;;;;;;;5.11;55.55;101185.63;4992930;28;20112;-86
2021/03/20 09:07:55;;;;;;;5.32;2.17;;;;;;;5.25;56.50;101190.69;5000199;28;20416;-85
2021/03/20 09:10:32;;;;;;;4.57;2.60;;;;;;;5.35;56.04;101179.25;5001209;28;20054;-85
2021/03/20 09:13:25;;;;;;;5.03;2.35;;;;;;;5.47;55.35;101182.59;4999640;28;20057;-85
2021/03/20 09:16:07;;;;;;;4.27;1.83;;;;;;;5.58;55.16;101174.63;5001257;28;20531;-85
2021/03/20 09:18:34;;;;;;;4.32;1.90;;;;;;;5.72;57.39;101179.66;5001102;28;20141;-85
2021/03/20 09:21:05;;;;;;;3.10;1.85;;;;;;;5.82;56.04;101173.41;5000106;28;20050;-85
2021/03/20 09:23:44;;;;;;;4.85;1.88;;;;;;;5.94;56.19;101172.38;4999045;28;20052;-85
2021/03/20 09:26:32;;;;;;;3.95;2.40;;;;;;;6.06;55.98;101171.34;4997519;28;20065;-86
2021/03/20 09:29:03;;;;;;;5.95;1.80;;;;;;;6.18;54.86;101164.22;4999002;28;20046;-86
2021/03/20 09:31:32;;;;;;;6.18;1.90;;;;;;;6.23;55.12;101158.03;5000174;28;20053;-85
2021/03/20 09:34:17;;;;;;;3.97;1.83;;;;;;;6.27;55.06;101164.06;5001231;28;20050;-86
2021/03/20 09:36:48;;;;;;;4.55;2.20;;;;;;;6.30;55.24;101163.13;5040934;23;20070;-86
2021/03/20 09:39:42;;;;;;;6.88;2.03;;;;;;;6.32;53.61;101162.22;4996583;28;20048;-86
2021/03/20 09:42:23;;;;;;;6.40;2.00;;;;;;;6.36;52.88;101153.44;5010495;28;20416;-86
2021/03/20 09:44:52;;;;;;;4.40;2.20;;;;;;;6.44;55.21;101155.06;4994881;28;20060;-86
2021/03/20 09:47:31;;;;;;;2.70;1.80;;;;;;;6.44;52.96;101165.53;4981990;28;20047;-86
2021/03/20 09:50:00;;;;;;;4.50;2.05;;;;;;;6.47;55.07;101166.34;4975763;28;20117;-86
2021/03/20 09:52:38;;;;;;;4.20;2.25;;;;;;;6.47;52.57;101162.88;4957829;28;20066;-86
2021/03/20 09:55:29;;;;;;;3.17;1.98;;;;;;;6.50;53.41;101161.06;4957153;28;20055;-86
2021/03/20 09:58:22;;;;;;;4.97;2.30;;;;;;;6.59;53.58;101153.94;4957337;28;20051;-86
2021/03/20 10:01:04;;;;;;;3.42;2.00;;;;;;;6.71;53.74;101150.22;4944379;28;20477;-86
2021/03/20 10:03:51;;;;;;;2.60;1.77;;;;;;;6.84;52.69;101149.09;4956075;29;20090;-86
2021/03/20 10:06:24;;;;;;;2.88;2.10;;;;;;;6.96;53.70;101141.94;4975370;28;20101;-86
2021/03/20 10:09:06;;;;;;;4.05;1.60;;;;;;;7.04;53.31;101153.13;4976436;28;20057;-86
2021/03/20 10:11:32;;;;;;;3.45;2.05;;;;;;;7.16;55.60;101155.50;4975587;28;20058;-86
2021/03/20 10:13:58;;;;;;;4.30;2.15;;;;;;;7.24;54.67;101150.09;4975059;28;20051;-86
2021/03/20 10:16:32;;;;;;;4.07;1.85;;;;;;;7.32;53.14;101154.31;4974413;28;20382;-86
2021/03/20 10:19:10;;;;;;;4.72;2.13;;;;;;;7.38;52.47;101154.19;4975033;28;20130;-86
2021/03/20 10:21:38;;;;;;;5.82;2.45;;;;;;;7.49;54.39;101156.56;4973011;28;20469;-86
2021/03/20 10:24:24;;;;;;;3.80;1.80;;;;;;;7.53;52.03;101139.88;4975766;28;20051;-86
2021/03/20 10:27:08;;;;;;;4.72;1.92;;;;;;;7.61;51.69;101140.59;4975039;28;20066;-86
2021/03/20 10:29:36;;;;;;;;;;;;;;;7.71;52.31;101133.38;4975248;28;20051;-86
2021/03/20 10:32:19;;;;;;;5.68;2.00;;;;;;;7.84;53.27;101143.59;4961598;28;19928;-86
2021/03/20 10:34:52;;;;;;;4.85;2.00;;;;;;;7.90;52.88;101146.06;4955238;29;20054;-86
2021/03/20 10:37:21;;;;;;;4.38;1.90;;;;;;;8.01;54.36;101140.56;4956449;28;20051;-86
2021/03/20 10:40:01;;;;;;;4.75;2.15;;;;;;;8.10;54.56;101137.72;4956534;28;20051;-86
2021/03/20 10:42:33;;;;;;;4.88;2.45;;;;;;;8.22;53.03;101136.53;4958766;28;20062;-86
2021/03/20 10:45:24;;;;;;;4.70;1.83;;;;;;;8.34;52.80;101133.59;4956332;28;20059;-87
2021/03/20 10:47:57;;;;;;;3.88;2.08;;;;;;;8.49;54.59;101128.88;4954959;29;20047;-86
2021/03/20 10:50:30;;;;;;;3.90;1.85;;;;;;;8.61;53.24;101125.09;4956522;28;20054;-86
2021/03/20 10:53:02;;;;;;;3.33;1.83;;;;;;;8.78;52.50;101122.00;4974275;28;20061;-86
2021/03/20 10:55:36;;;;;;;3.10;2.15;;;;;;;8.94;50.18;101117.19;4975194;28;20055;-86
2021/03/20 10:58:05;;;;;;;4.60;2.00;;;;;;;9.08;51.62;101111.53;4975542;28;20121;-86
2021/03/20 11:00:44;;;;;;;2.88;2.15;;;;;;;9.15;48.91;101117.47;4972928;28;20417;-87
2021/03/20 11:03:18;;;;;;;2.95;1.90;;;;;;;9.24;51.94;101114.56;4958468;28;20051;-86
2021/03/20 11:05:44;;;;;;;5.10;2.28;;;;;;;9.34;52.82;101098.53;4954384;29;20102;-86
2021/03/20 11:08:24;;;;;;;4.07;2.15;;;;;;;9.41;49.52;101107.97;4956235;29;20051;-88
2021/03/20 11:11:06;;;;;;;5.60;2.63;;;;;;;9.57;51.83;101116.22;4955218;29;20048;-88
2021/03/20 11:13:42;;;;;;;3.58;2.97;;;;;;;9.70;49.37;101103.59;4954926;28;20058;-88
2021/03/20 11:16:46;;;;;;;5.13;2.78;;;;;;;9.87;50.93;101099.56;4956020;29;20059;-88
2021/03/20 11:19:12;;;;;;;;;;;;;;;10.11;52.50;101099.66;4938265;28;20057;-88
2021/03/20 11:21:45;;;;;;;5.13;2.35;;;;;;;10.37;51.45;101096.13;4954989;28;20329;-88
2021/03/20 11:24:26;;;;;;;4.70;2.88;;;;;;;10.61;51.75;101095.38;4960484;28;20053;-88
2021/03/20 11:26:53;;;;;;;5.75;2.90;;;;;;;10.91;54.20;101098.66;4974139;28;20058;-88
2021/03/20 11:29:23;;;;;;;5.32;3.58;;;;;;;11.23;52.52;101092.22;4973517;28;20046;-88
2021/03/20 11:31:54;;;;;;;5.63;3.05;;;;;;;11.53;52.10;101091.97;4974303;28;20050;-87
2021/03/20 11:34:33;;;;;;;4.10;3.15;;;;;;;11.77;50.39;101086.63;4971197;28;20065;-88
2021/03/20 11:37:00;;;;;;;4.82;2.83;;;;;;;11.99;51.74;101073.41;4973634;28;20054;-88
2021/03/20 11:39:28;;;;;;;6.18;3.70;;;;;;;12.16;51.53;101078.00;4974042;28;20046;-88
2021/03/20 11:42:15;;;;;;;6.78;3.33;;;;;;;12.25;48.39;101068.81;4973883;28;20046;-88
2021/03/20 11:44:44;;;;;;;6.18;4.05;;;;;;;12.38;49.32;101066.53;4986903;28;20062;-88
2021/03/20 11:47:29;;;;;;;6.32;4.00;;;;;;;12.45;49.33;101067.13;4974213;28;20489;-88
2021/03/20 11:49:58;;;;;;;7.05;4.07;;;;;;;12.47;49.53;101057.34;4973971;28;20043;-89
2021/03/20 11:52:30;;;;;;;4.97;3.80;;;;;;;12.49;48.54;101058.13;4974686;28;20046;-88
2021/03/20 11:55:02;;;;;;;6.40;4.30;;;;;;;12.53;48.31;101059.72;4973887;28;20062;-88
2021/03/20 11:57:32;;;;;;;6.22;4.10;;;;;;;12.55;47.50;101054.34;4974190;28;20042;-88
2021/03/20 11:59:59;;;;;;;6.60;4.03;;;;;;;12.55;49.14;101044.66;4973805;28;20054;-88
2021/03/20 12:02:25;;;;;;;5.78;3.50;;;;;;;12.54;49.20;101050.88;4973712;28;20054;-88
2021/03/20 12:05:34;;;;;;;6.28;3.55;;;;;;;12.49;47.38;101042.28;4970797;28;20074;-88
2021/03/20 12:08:21;;;;;;;5.00;3.55;;;;;;;12.49;46.56;101037.00;4973654;28;20501;-88
2021/03/20 12:11:03;;;;;;;4.28;2.92;;;;;;;12.50;46.63;101034.31;4974820;28;20057;-88
2021/03/20 12:13:56;;;;;;;4.75;3.00;;;;;;;12.53;46.61;101021.88;4972322;28;20047;-88
2021/03/20 12:16:28;;;;;;;4.05;2.85;;;;;;;12.62;47.83;101008.25;4952526;28;20056;-89
2021/03/20 12:19:14;;;;;;;5.25;2.85;;;;;;;12.67;46.14;101015.97;4953943;29;20051;-89